Terminal Aerodrome Forecast
Issued by NWS

Home | Current Version | Previous Version | Text Only | Print | Product List | Glossary On
Versions: 1 2 3 4 5 6 7 8 9 10 11 12 13 14 15 16
662
FTUS45 KRIW 240532
TAFCPR
TAF
KCPR 240532Z 2406/2506 02011KT 6SM -RA BR SCT003 OVC008
     FM241200 02012KT 5SM -RASN OVC005
     FM241800 03013G23KT 5SM -RASN SCT007 OVC012
     FM250100 04007KT 5SM -RASN OVC009=

USA.gov is the U.S. government's official web portal to all federal, state and local government web resources and services.